Time;durP1;ratioP1;P1;durP2;ratioP2;P2;SDS_P1;SDS_P2;PMS_P1;PMS_P2;Temp;Humidity;BMP_temperature;BMP_pressure;BME280_temperature;BME280_humidity;BME280_pressure;Samples;Min_cycle;Max_cycle;Signal;HPM_P1;HPM_P2
2022/01/12 00:01:19;;;;;;;10.32;5.50;;;;;;;-1.86;100.00;100614.06;5014841;28;20033;-69
2022/01/12 00:03:45;;;;;;;10.57;5.07;;;;;;;-2.10;100.00;100585.22;5026116;28;20049;-68
2022/01/12 00:06:12;;;;;;;10.60;5.13;;;;;;;-2.08;100.00;100583.34;5022250;28;20036;-69
2022/01/12 00:08:37;;;;;;;11.02;5.07;;;;;;;-2.01;100.00;100605.13;5023804;28;20478;-68
2022/01/12 00:11:04;;;;;;;11.55;4.57;;;;;;;-2.12;100.00;100608.31;5015789;28;20069;-69
2022/01/12 00:13:29;;;;;;;9.75;4.55;;;;;;;-2.21;100.00;100601.69;5026878;28;20036;-69
2022/01/12 00:15:55;;;;;;;8.88;4.97;;;;;;;-2.26;100.00;100598.41;5023564;28;20021;-69
2022/01/12 00:18:21;;;;;;;11.88;5.10;;;;;;;-2.24;100.00;100611.59;5021421;28;20037;-69
2022/01/12 00:20:50;;;;;;;10.50;4.55;;;;;;;-2.38;100.00;100616.72;5027765;28;20064;-69
2022/01/12 00:23:17;;;;;;;9.10;5.15;;;;;;;-2.47;100.00;100612.72;5032401;28;20116;-68
2022/01/12 00:25:59;;;;;;;11.32;4.72;;;;;;;-2.52;100.00;100620.91;5023583;28;20499;-69
2022/01/12 00:33:55;;;;;;;10.48;5.28;;;;;;;-2.79;100.00;100593.97;5033390;28;20095;-69
2022/01/12 00:36:21;;;;;;;8.48;4.38;;;;;;;-2.57;100.00;100628.22;5022730;28;20029;-68
2022/01/12 00:38:47;;;;;;;9.90;4.93;;;;;;;-2.71;100.00;100620.09;5023877;28;20034;-69
2022/01/12 00:41:16;;;;;;;10.00;4.85;;;;;;;-2.67;100.00;100621.69;5023649;28;20038;-68
2022/01/12 00:43:43;;;;;;;12.18;4.43;;;;;;;-2.60;100.00;100638.97;5026829;28;20061;-68
2022/01/12 00:46:09;;;;;;;9.98;4.88;;;;;;;-2.61;100.00;100631.97;5024481;28;20056;-68
2022/01/12 00:48:37;;;;;;;11.52;5.35;;;;;;;-2.55;100.00;100620.19;5031824;28;20107;-69
2022/01/12 00:51:03;;;;;;;11.02;5.45;;;;;;;-2.51;100.00;100630.59;5024135;28;20041;-68
2022/01/12 00:53:29;;;;;;;10.32;4.85;;;;;;;-2.47;100.00;100608.28;5028772;28;20487;-67
2022/01/12 00:55:55;;;;;;;10.05;4.78;;;;;;;-2.48;100.00;100611.88;5029971;28;20037;-69
2022/01/12 00:58:20;;;;;;;9.57;4.70;;;;;;;-2.32;100.00;100619.06;5047805;28;20025;-69
2022/01/12 01:00:45;;;;;;;10.40;5.35;;;;;;;-2.44;100.00;100629.34;5051549;28;20037;-69
2022/01/12 01:03:11;;;;;;;13.27;5.53;;;;;;;-2.51;100.00;100622.63;5047895;28;20034;-69
2022/01/12 01:05:36;;;;;;;10.38;4.72;;;;;;;-2.56;100.00;100624.66;5048878;28;20025;-69
2022/01/12 01:08:02;;;;;;;8.75;4.50;;;;;;;-2.50;100.00;100627.00;5044132;28;20346;-68
2022/01/12 01:10:47;;;;;;;9.90;5.22;;;;;;;-2.47;100.00;100624.19;5046756;28;20024;-70
2022/01/12 01:13:34;;;;;;;9.65;4.60;;;;;;;-2.53;100.00;100624.50;5049382;28;20009;-72
2022/01/12 01:16:18;;;;;;;8.70;4.68;;;;;;;-2.64;100.00;100600.31;5031734;28;20030;-69
2022/01/12 01:26:57;;;;;;;10.85;4.78;;;;;;;-2.85;100.00;100617.25;5025051;28;20152;-69
2022/01/12 01:29:23;;;;;;;8.80;5.10;;;;;;;-3.00;100.00;100617.03;5022140;28;20049;-69
2022/01/12 01:31:48;;;;;;;11.80;5.50;;;;;;;-3.29;100.00;100580.50;5027661;28;20025;-69
2022/01/12 01:34:15;;;;;;;9.00;4.40;;;;;;;-3.13;100.00;100626.50;5031759;28;20026;-68
2022/01/12 01:37:00;;;;;;;11.57;5.40;;;;;;;-3.13;100.00;100623.84;5027469;28;20052;-69
2022/01/12 01:39:27;;;;;;;11.07;5.15;;;;;;;-3.35;100.00;100601.03;5017428;28;20037;-69
2022/01/12 01:41:57;;;;;;;11.82;5.40;;;;;;;-2.89;100.00;100621.84;5022848;28;20029;-68
2022/01/12 01:55:04;;;;;;;10.57;5.30;;;;;;;-3.31;100.00;100634.34;5029062;28;20041;-69
2022/01/12 01:57:31;;;;;;;10.45;4.70;;;;;;;-3.56;100.00;100605.50;5022175;28;20028;-69
2022/01/12 01:59:57;;;;;;;9.93;4.97;;;;;;;-3.46;100.00;100639.47;5034580;28;20060;-68
2022/01/12 02:02:22;;;;;;;13.32;5.95;;;;;;;-3.62;100.00;100639.31;5029531;28;20057;-68
2022/01/12 02:04:48;;;;;;;9.95;5.95;;;;;;;-3.57;100.00;100648.75;5030798;28;20033;-68
2022/01/12 02:07:14;;;;;;;10.57;5.22;;;;;;;-3.62;100.00;100642.81;5030356;28;20025;-68
2022/01/12 02:09:39;;;;;;;11.55;5.57;;;;;;;-3.40;100.00;100663.88;5019607;28;20029;-69
2022/01/12 02:12:05;;;;;;;11.38;5.50;;;;;;;-3.55;100.00;100638.97;5018735;28;20037;-69
2022/01/12 02:14:30;;;;;;;15.30;5.82;;;;;;;-3.58;100.00;100630.31;5029004;28;20030;-69
2022/01/12 02:17:02;;;;;;;12.43;6.15;;;;;;;-3.36;100.00;100654.00;5024313;28;20569;-68
2022/01/12 02:19:55;;;;;;;12.77;5.40;;;;;;;-3.39;100.00;100659.44;5025823;28;20013;-69
2022/01/12 02:36:15;;;;;;;18.15;5.05;;;;;;;-3.02;100.00;100636.59;5029908;28;20522;-67
2022/01/12 02:41:24;;;;;;;10.48;5.00;;;;;;;-3.19;100.00;100637.38;5052902;22;20413;-74
2022/01/12 02:54:54;;;;;;;13.75;5.53;;;;;;;-3.52;100.00;100646.75;5024335;28;20067;-73
2022/01/12 02:57:20;;;;;;;12.30;5.45;;;;;;;-3.66;100.00;100635.09;5065071;28;20049;-72
2022/01/12 03:04:53;;;;;;;11.57;5.97;;;;;;;-3.69;100.00;100654.59;5066360;28;20023;-73
2022/01/12 03:07:20;;;;;;;12.38;5.70;;;;;;;-3.79;100.00;100632.97;5063685;28;20024;-73
2022/01/12 03:09:46;;;;;;;17.00;6.35;;;;;;;-3.79;100.00;100637.41;5070222;28;20085;-74
2022/01/12 03:12:11;;;;;;;13.13;6.25;;;;;;;-3.79;100.00;100638.28;5070613;28;20040;-72
2022/01/12 03:14:36;;;;;;;11.15;5.93;;;;;;;-3.69;100.00;100622.88;5062587;28;20024;-72
2022/01/12 03:17:02;;;;;;;15.65;6.97;;;;;;;-3.49;100.00;100636.97;5071461;28;20048;-72
2022/01/12 03:19:27;;;;;;;10.05;6.20;;;;;;;-3.54;100.00;100623.94;5054248;28;20057;-73
2022/01/12 03:21:52;;;;;;;11.57;5.70;;;;;;;-3.58;100.00;100648.84;5067581;28;20039;-73
2022/01/12 03:24:18;;;;;;;10.50;5.32;;;;;;;-3.79;100.00;100635.63;5063041;28;20513;-72
2022/01/12 03:26:43;;;;;;;12.95;5.57;;;;;;;-3.89;100.00;100636.09;5068012;28;20040;-72
2022/01/12 03:29:08;;;;;;;11.35;5.60;;;;;;;-3.94;100.00;100665.38;5075243;28;20025;-73
2022/01/12 03:31:35;;;;;;;10.40;6.05;;;;;;;-4.05;100.00;100671.13;5072175;28;20020;-72
2022/01/12 03:34:09;;;;;;;11.85;5.88;;;;;;;-4.08;100.00;100658.03;5084035;28;20024;-73
2022/01/12 03:39:18;;;;;;;15.75;5.70;;;;;;;-4.11;100.00;100659.94;5090372;28;20424;-72
2022/01/12 03:41:44;;;;;;;13.05;5.85;;;;;;;-4.11;100.00;100657.28;5082720;28;20028;-74
2022/01/12 03:44:12;;;;;;;10.60;5.82;;;;;;;-3.99;100.00;100667.34;5073613;28;20393;-72
2022/01/12 03:46:39;;;;;;;11.75;6.10;;;;;;;-3.98;100.00;100662.00;5072191;28;20033;-72
2022/01/12 03:49:05;;;;;;;11.18;5.68;;;;;;;-4.10;100.00;100662.53;5071562;28;20020;-73
2022/01/12 03:51:31;;;;;;;11.65;6.15;;;;;;;-4.22;100.00;100657.75;5067314;28;20031;-72
2022/01/12 03:53:56;;;;;;;13.20;6.47;;;;;;;-4.04;100.00;100679.91;5066553;28;20108;-72
2022/01/12 03:56:21;;;;;;;14.23;5.65;;;;;;;-4.08;100.00;100691.53;5063960;28;20374;-72
2022/01/12 03:58:46;;;;;;;10.75;5.63;;;;;;;-4.17;100.00;100692.75;5070319;28;20032;-72
2022/01/12 04:01:12;;;;;;;11.70;5.28;;;;;;;-3.99;100.00;100697.28;5061121;28;20032;-73
2022/01/12 04:03:42;;;;;;;9.38;5.72;;;;;;;-3.78;100.00;100692.03;5071779;28;20039;-73
2022/01/12 04:08:52;;;;;;;12.57;5.85;;;;;;;-3.52;100.00;100675.00;5064513;28;20036;-72
2022/01/12 04:11:17;;;;;;;10.55;5.70;;;;;;;-3.67;100.00;100652.72;5063545;28;20040;-72
2022/01/12 04:13:43;;;;;;;13.45;6.20;;;;;;;-3.68;100.00;100668.69;5054887;28;20024;-72
2022/01/12 04:16:11;;;;;;;12.95;6.95;;;;;;;-3.80;100.00;100670.94;5055588;28;20496;-72
2022/01/12 04:18:38;;;;;;;12.40;6.93;;;;;;;-3.97;100.00;100673.44;5073225;28;20028;-72
2022/01/12 04:21:07;;;;;;;17.15;7.90;;;;;;;-4.06;100.00;100676.47;5070145;28;20588;-73
2022/01/12 04:23:32;;;;;;;16.70;7.72;;;;;;;-4.05;100.00;100672.91;5072741;28;20504;-73
2022/01/12 04:26:00;;;;;;;14.85;7.65;;;;;;;-4.14;100.00;100650.34;5073493;28;20111;-73
2022/01/12 04:28:27;;;;;;;18.20;6.45;;;;;;;-4.08;100.00;100662.47;5073597;28;20063;-72
2022/01/12 04:30:54;;;;;;;15.93;6.72;;;;;;;-4.12;100.00;100682.88;5067204;28;20040;-73
2022/01/12 04:33:20;;;;;;;12.55;6.50;;;;;;;-4.15;100.00;100684.78;5068020;28;20036;-73
2022/01/12 04:35:49;;;;;;;15.63;6.82;;;;;;;-4.08;100.00;100686.25;5061437;28;20039;-73
2022/01/12 04:38:17;;;;;;;15.05;6.57;;;;;;;-4.02;100.00;100678.06;5063290;28;20025;-72
2022/01/12 04:40:42;;;;;;;14.65;7.03;;;;;;;-4.08;100.00;100655.38;5063344;28;20040;-73
2022/01/12 04:43:09;;;;;;;13.63;6.82;;;;;;;-4.05;100.00;100670.25;5074891;28;20056;-72
2022/01/12 04:45:41;;;;;;;11.73;6.78;;;;;;;-4.01;100.00;100687.69;5068358;28;20032;-73
2022/01/12 04:50:55;;;;;;;13.23;7.45;;;;;;;-4.00;100.00;100684.16;5031655;28;20040;-73
2022/01/12 04:53:21;;;;;;;16.02;7.22;;;;;;;-4.01;100.00;100706.19;5070881;28;20326;-74
2022/01/12 04:55:48;;;;;;;17.95;7.45;;;;;;;-4.18;100.00;100683.97;5065102;28;20053;-75
2022/01/12 04:58:15;;;;;;;11.50;6.65;;;;;;;-4.13;100.00;100726.09;5062631;28;20082;-74
2022/01/12 05:00:42;;;;;;;11.95;6.32;;;;;;;-4.13;100.00;100730.53;5071255;28;20021;-77
2022/01/12 05:08:50;;;;;;;14.35;6.82;;;;;;;-4.38;100.00;100718.28;5070442;28;20543;-75
2022/01/12 05:14:01;;;;;;;13.32;6.22;;;;;;;-4.26;100.00;100725.72;5070909;28;20397;-75
2022/01/12 05:16:27;;;;;;;15.32;7.53;;;;;;;-4.15;100.00;100727.06;5057257;28;20047;-76
2022/01/12 05:18:55;;;;;;;15.35;7.63;;;;;;;-4.34;100.00;100696.09;5072103;28;20028;-75
2022/01/12 05:21:22;;;;;;;13.60;6.55;;;;;;;-4.23;100.00;100730.88;5069897;28;20046;-75
2022/01/12 05:23:48;;;;;;;15.20;7.25;;;;;;;-4.28;100.00;100732.00;5059498;28;20032;-76
2022/01/12 05:26:14;;;;;;;14.55;7.30;;;;;;;-4.29;100.00;100752.28;5063326;28;20137;-73
2022/01/12 05:28:40;;;;;;;14.48;6.80;;;;;;;-4.50;100.00;100734.63;5066094;28;20033;-72
2022/01/12 05:31:08;;;;;;;13.10;6.30;;;;;;;-4.50;100.00;100758.41;5062219;28;20093;-72
2022/01/12 05:33:33;;;;;;;13.30;6.10;;;;;;;-4.54;100.00;100759.44;5069252;28;20031;-76
2022/01/12 05:36:01;;;;;;;11.07;6.13;;;;;;;-4.63;100.00;100745.66;5070186;28;20036;-73
2022/01/12 05:38:26;;;;;;;14.30;6.82;;;;;;;-4.26;100.00;100746.00;5068153;28;20056;-72
2022/01/12 05:41:04;;;;;;;13.38;6.85;;;;;;;-4.16;100.00;100741.22;5066989;28;20048;-73
2022/01/12 05:43:31;;;;;;;14.15;6.13;;;;;;;-4.13;100.00;100717.31;5066070;28;20072;-73
2022/01/12 05:46:08;;;;;;;11.07;6.18;;;;;;;-4.07;100.00;100735.53;5065568;28;20452;-73
2022/01/12 05:51:17;;;;;;;12.35;6.05;;;;;;;-4.28;100.00;100753.97;5067790;28;20035;-73
2022/01/12 05:53:43;;;;;;;12.60;6.68;;;;;;;-4.56;100.00;100738.34;5072643;28;20028;-76
2022/01/12 05:56:08;;;;;;;12.40;6.15;;;;;;;-4.47;100.00;100760.94;5063052;28;20474;-76
2022/01/12 05:58:33;;;;;;;16.80;7.82;;;;;;;-4.56;100.00;100769.19;5056980;28;20437;-72
2022/01/12 06:00:58;;;;;;;13.40;6.18;;;;;;;-4.67;100.00;100767.81;5065307;28;20405;-76
2022/01/12 06:03:24;;;;;;;15.20;7.05;;;;;;;-4.62;100.00;100781.72;5076618;28;20055;-75
2022/01/12 06:05:49;;;;;;;14.23;6.95;;;;;;;-4.34;100.00;100778.03;5068185;28;20032;-75
2022/01/12 06:08:14;;;;;;;13.60;6.80;;;;;;;-4.37;100.00;100759.66;5066284;28;20024;-74
2022/01/12 06:10:40;;;;;;;16.13;6.63;;;;;;;-4.47;100.00;100763.56;5060242;28;20548;-75
2022/01/12 06:13:05;;;;;;;15.45;7.10;;;;;;;-4.55;100.00;100774.44;5064035;28;20498;-74
2022/01/12 06:15:30;;;;;;;11.20;5.80;;;;;;;-4.70;100.00;100759.16;5064005;28;20035;-75
2022/01/12 06:17:56;;;;;;;15.70;7.30;;;;;;;-4.64;100.00;100761.56;5061957;28;20032;-74
2022/01/12 06:20:21;;;;;;;16.17;7.43;;;;;;;-4.40;100.00;100767.69;5067231;28;20055;-75
2022/01/12 06:22:47;;;;;;;16.98;8.02;;;;;;;-4.29;100.00;100778.69;5065941;28;20115;-76
2022/01/12 06:25:15;;;;;;;17.30;8.73;;;;;;;-4.29;100.00;100785.78;5065430;28;20378;-74
2022/01/12 06:27:50;;;;;;;19.43;8.50;;;;;;;-4.26;100.00;100765.38;5064535;28;20111;-74
2022/01/12 06:32:52;;;;;;;18.48;8.15;;;;;;;-4.22;100.00;100753.75;5052094;28;20059;-75
2022/01/12 06:35:17;;;;;;;22.42;8.10;;;;;;;-4.29;100.00;100739.06;5053624;28;20607;-75
2022/01/12 06:37:42;;;;;;;19.73;7.80;;;;;;;-4.27;100.00;100733.69;5066225;28;20059;-77
2022/01/12 06:40:08;;;;;;;17.80;8.00;;;;;;;-4.20;100.00;100754.53;5088321;28;20033;-74
2022/01/12 06:42:34;;;;;;;14.02;7.00;;;;;;;-4.34;100.00;100748.94;5084341;28;20118;-77
2022/01/12 06:44:59;;;;;;;12.07;6.53;;;;;;;-4.41;100.00;100747.47;5091462;28;20036;-75
2022/01/12 06:47:24;;;;;;;15.65;7.60;;;;;;;-4.35;100.00;100759.56;5085292;28;20044;-74
2022/01/12 06:49:50;;;;;;;15.93;7.57;;;;;;;-4.29;100.00;100764.63;5076389;28;20021;-74
2022/01/12 06:52:15;;;;;;;14.27;7.80;;;;;;;-4.46;100.00;100750.28;5087982;28;20016;-74
2022/01/12 06:54:40;;;;;;;16.52;7.60;;;;;;;-4.44;100.00;100760.81;5092532;28;20047;-74
2022/01/12 06:57:06;;;;;;;16.65;7.85;;;;;;;-4.37;100.00;100767.56;5086717;28;20110;-72
2022/01/12 06:59:31;;;;;;;15.20;7.90;;;;;;;-4.44;100.00;100753.72;5081781;28;20020;-73
2022/01/12 07:01:57;;;;;;;16.00;8.48;;;;;;;-4.34;100.00;100775.38;5072703;28;20035;-73
2022/01/12 07:04:24;;;;;;;20.08;10.20;;;;;;;-4.30;100.00;100776.09;5085922;28;20025;-73
2022/01/12 07:06:50;;;;;;;19.67;8.18;;;;;;;-4.22;100.00;100777.53;5083897;28;20039;-72
2022/01/12 07:09:15;;;;;;;17.38;7.97;;;;;;;-4.13;100.00;100778.94;5075105;28;20043;-72
2022/01/12 07:11:42;;;;;;;18.02;8.05;;;;;;;-4.13;100.00;100776.31;5070510;28;20035;-72
2022/01/12 07:14:07;;;;;;;16.67;7.70;;;;;;;-4.05;100.00;100784.78;5068491;28;20040;-72
2022/01/12 07:16:32;;;;;;;18.15;8.68;;;;;;;-3.99;100.00;100781.03;5066943;28;20024;-74
2022/01/12 07:18:59;;;;;;;19.15;8.68;;;;;;;-4.01;100.00;100772.28;5074351;28;20047;-75
2022/01/12 07:21:25;;;;;;;18.88;7.88;;;;;;;-3.92;100.00;100782.50;5063907;28;20033;-73
2022/01/12 07:23:54;;;;;;;19.80;8.40;;;;;;;-3.95;100.00;100776.50;5070837;28;20040;-72
2022/01/12 07:26:20;;;;;;;14.70;8.20;;;;;;;-3.74;100.00;100802.06;5067987;28;20031;-71
2022/01/12 07:28:45;;;;;;;16.35;8.05;;;;;;;-3.65;100.00;100800.81;5074797;28;20482;-71
2022/01/12 07:31:10;;;;;;;16.42;7.55;;;;;;;-3.49;100.00;100806.31;5062347;28;20145;-71
2022/01/12 07:33:36;;;;;;;16.63;7.82;;;;;;;-3.37;100.00;100814.59;5076277;28;20095;-71
2022/01/12 07:36:01;;;;;;;22.35;9.88;;;;;;;-3.24;100.00;100820.22;5068970;28;20491;-78
2022/01/12 07:38:26;;;;;;;18.48;8.73;;;;;;;-2.89;100.00;100844.31;5061544;28;20032;-71
2022/01/12 07:40:52;;;;;;;17.05;8.50;;;;;;;-2.78;100.00;100852.63;5060945;28;20128;-73
2022/01/12 07:43:18;;;;;;;13.90;7.00;;;;;;;-2.65;100.00;100858.25;5063989;28;20112;-70
2022/01/12 07:45:43;;;;;;;15.50;7.97;;;;;;;-2.46;100.00;100851.19;5070909;28;20481;-78
2022/01/12 07:48:09;;;;;;;15.68;8.23;;;;;;;-2.42;100.00;100850.09;5064296;28;20052;-74
2022/01/12 07:50:34;;;;;;;18.80;9.35;;;;;;;-2.23;100.00;100881.06;5061481;28;20035;-75
2022/01/12 07:52:59;;;;;;;34.67;12.98;;;;;;;-2.12;100.00;100873.50;5066414;28;20123;-76
2022/01/12 07:55:25;;;;;;;32.22;11.88;;;;;;;-1.82;100.00;100880.94;5062211;28;20017;-73
2022/01/12 07:57:51;;;;;;;30.85;12.23;;;;;;;-1.60;100.00;100873.66;5068216;28;20478;-72
2022/01/12 08:00:18;;;;;;;21.42;10.10;;;;;;;-1.21;99.58;100877.91;5065666;28;20024;-72
2022/01/12 08:02:44;;;;;;;15.77;8.90;;;;;;;-1.09;93.65;100884.41;5065541;28;20034;-72
2022/01/12 08:05:10;;;;;;;20.40;10.23;;;;;;;-0.95;92.65;100860.66;5073949;28;21573;-72
2022/01/12 08:07:38;;;;;;;16.27;9.75;;;;;;;-1.41;92.12;100857.69;5070233;28;20449;-72
2022/01/12 08:10:05;;;;;;;16.42;8.50;;;;;;;-1.34;96.91;100883.00;5060146;28;20439;-72
2022/01/12 08:12:30;;;;;;;15.65;8.38;;;;;;;-1.35;96.21;100881.28;5074130;28;20048;-71
2022/01/12 08:14:55;;;;;;;15.32;8.48;;;;;;;-1.43;94.20;100856.03;5063011;28;20033;-70
2022/01/12 08:17:21;;;;;;;15.75;9.23;;;;;;;-1.06;97.33;100876.28;5063917;28;20024;-70
2022/01/12 08:19:46;;;;;;;22.42;9.18;;;;;;;-0.77;98.76;100885.41;5060432;28;20050;-70
2022/01/12 08:22:11;;;;;;;17.27;8.23;;;;;;;-0.83;94.11;100877.78;5071894;28;20408;-75
2022/01/12 08:24:37;;;;;;;23.55;10.98;;;;;;;-0.82;94.34;100887.44;5065063;28;20043;-72
2022/01/12 08:27:03;;;;;;;17.15;9.18;;;;;;;-0.74;95.59;100885.25;5071988;28;20024;-75
2022/01/12 08:29:29;;;;;;;19.77;9.45;;;;;;;-0.70;92.86;100889.47;5073700;28;20033;-77
2022/01/12 08:31:55;;;;;;;19.75;10.00;;;;;;;-0.73;90.80;100879.00;5076245;28;20159;-72
2022/01/12 08:34:21;;;;;;;16.95;9.10;;;;;;;-0.74;90.96;100840.06;5067158;28;20063;-74
2022/01/12 08:36:46;;;;;;;17.30;9.30;;;;;;;-0.14;89.95;100882.06;5075842;28;20043;-72
2022/01/12 08:39:11;;;;;;;19.00;9.68;;;;;;;0.35;87.77;100852.72;5067309;28;20056;-74
2022/01/12 08:41:37;;;;;;;16.02;9.60;;;;;;;1.15;85.49;100868.47;5071693;28;20024;-74
2022/01/12 08:44:05;;;;;;;14.88;8.13;;;;;;;1.99;79.77;100884.63;5069305;28;20125;-73
2022/01/12 08:46:30;;;;;;;17.52;8.02;;;;;;;2.95;77.06;100873.94;5066761;28;20107;-73
2022/01/12 08:48:56;;;;;;;12.25;6.95;;;;;;;3.99;70.05;100863.97;5081146;28;20117;-74
2022/01/12 08:51:21;;;;;;;9.85;5.78;;;;;;;4.13;62.98;100857.63;5094627;28;20051;-74
2022/01/12 08:53:47;;;;;;;8.75;5.75;;;;;;;4.01;62.88;100864.75;5091835;28;20060;-72
2022/01/12 08:56:13;;;;;;;11.20;5.82;;;;;;;3.41;63.85;100847.56;5089130;28;20025;-73
2022/01/12 08:58:39;;;;;;;12.73;6.90;;;;;;;3.64;65.07;100870.03;5087026;28;20084;-74
2022/01/12 09:01:04;;;;;;;10.57;6.38;;;;;;;3.54;64.70;100852.03;5079401;28;20028;-76
2022/01/12 09:03:33;;;;;;;9.05;5.93;;;;;;;4.52;61.89;100877.09;5093325;28;20021;-75
2022/01/12 09:05:58;;;;;;;12.25;6.18;;;;;;;5.89;59.25;100881.78;5088923;28;20088;-76
2022/01/12 09:08:24;;;;;;;8.80;5.97;;;;;;;7.26;55.75;100886.69;5091148;28;20048;-74
2022/01/12 09:10:50;;;;;;;9.25;6.45;;;;;;;8.44;50.83;100892.53;5084505;28;20119;-74
2022/01/12 09:13:15;;;;;;;10.02;6.45;;;;;;;8.20;47.19;100890.16;5076366;28;20048;-74
2022/01/12 09:15:40;;;;;;;9.57;6.60;;;;;;;8.07;47.63;100884.16;5073610;28;20039;-78
2022/01/12 09:18:06;;;;;;;8.40;5.90;;;;;;;9.05;46.79;100886.06;5081756;28;20031;-72
2022/01/12 09:20:32;;;;;;;9.80;6.20;;;;;;;8.47;46.84;100886.00;5085036;28;20012;-75
2022/01/12 09:22:58;;;;;;;8.95;5.78;;;;;;;7.64;47.81;100879.84;5086268;28;20025;-75
2022/01/12 09:25:23;;;;;;;10.63;6.65;;;;;;;6.70;50.11;100893.16;5087985;28;20056;-76
2022/01/12 09:27:48;;;;;;;10.30;6.68;;;;;;;6.22;51.79;100904.25;5086206;28;20033;-73
2022/01/12 09:30:15;;;;;;;12.77;7.35;;;;;;;5.96;52.99;100894.75;5083423;28;20143;-73
2022/01/12 09:32:40;;;;;;;12.10;6.55;;;;;;;6.72;52.63;100888.50;5094608;28;20019;-73
2022/01/12 09:35:07;;;;;;;10.02;6.10;;;;;;;7.21;50.50;100908.63;5075840;28;20056;-71
2022/01/12 09:37:35;;;;;;;8.90;6.43;;;;;;;7.44;50.57;100914.75;5067256;28;20028;-74
2022/01/12 09:40:06;;;;;;;9.77;6.15;;;;;;;8.91;46.20;100938.63;5061011;28;20020;-73
2022/01/12 09:42:32;;;;;;;10.38;6.50;;;;;;;9.04;45.50;100942.91;5062458;28;20036;-73
2022/01/12 09:44:58;;;;;;;10.25;6.53;;;;;;;8.55;45.64;100946.38;5073440;28;20025;-73
2022/01/12 09:47:24;;;;;;;8.18;6.10;;;;;;;10.51;43.35;100945.19;5059384;28;20094;-73
2022/01/12 09:49:49;;;;;;;8.55;6.10;;;;;;;11.93;40.54;100938.09;5055764;28;20025;-74
2022/01/12 09:52:15;;;;;;;9.85;6.28;;;;;;;11.86;39.94;100926.16;5062039;28;20047;-75
2022/01/12 09:54:41;;;;;;;8.63;6.63;;;;;;;10.97;40.47;100938.75;5053866;28;20481;-75
2022/01/12 09:57:06;;;;;;;8.55;6.35;;;;;;;10.72;41.14;100943.09;5054288;28;20029;-74
2022/01/12 09:59:32;;;;;;;8.23;5.93;;;;;;;12.20;39.17;100944.34;5068262;28;20029;-74
2022/01/12 10:01:58;;;;;;;7.15;5.68;;;;;;;11.92;38.96;100943.66;5062080;28;20493;-76
2022/01/12 10:04:29;;;;;;;7.38;5.63;;;;;;;11.34;39.60;100943.22;5070239;28;20536;-76
2022/01/12 10:07:05;;;;;;;8.13;5.97;;;;;;;12.46;37.85;100934.28;5064682;28;20033;-73
2022/01/12 10:09:34;;;;;;;8.30;6.00;;;;;;;12.50;37.21;100930.25;5061655;28;20504;-73
2022/01/12 10:12:01;;;;;;;8.32;5.93;;;;;;;10.89;39.99;100954.09;5061168;28;20108;-72
2022/01/12 10:14:50;;;;;;;8.63;6.10;;;;;;;10.25;41.60;100945.00;5068443;28;20511;-73
2022/01/12 10:17:37;;;;;;;8.75;6.43;;;;;;;11.51;41.00;100938.75;5068434;28;20482;-71
2022/01/12 10:20:11;;;;;;;7.75;6.07;;;;;;;12.08;38.13;100943.78;5066309;28;20047;-72
2022/01/12 10:22:38;;;;;;;7.65;5.68;;;;;;;11.87;38.58;100949.59;5060692;28;20032;-73
2022/01/12 10:25:20;;;;;;;8.35;5.72;;;;;;;11.51;38.33;100949.59;5061441;28;20028;-75
2022/01/12 10:27:46;;;;;;;5.95;5.20;;;;;;;11.67;39.80;100956.19;5064611;28;20051;-73
2022/01/12 10:30:32;;;;;;;7.10;4.95;;;;;;;11.02;39.31;100942.88;5064232;28;20483;-72
2022/01/12 10:33:06;;;;;;;7.85;5.93;;;;;;;12.55;38.35;100951.47;5058652;28;20047;-72
2022/01/12 10:35:37;;;;;;;8.02;6.00;;;;;;;13.42;36.93;100951.19;5051857;28;20017;-75
2022/01/12 10:38:11;;;;;;;7.93;6.28;;;;;;;12.88;37.14;100965.16;5050915;28;20040;-75
2022/01/12 10:40:53;;;;;;;7.28;5.95;;;;;;;12.99;36.78;100950.41;5052064;28;20025;-76
2022/01/12 10:43:29;;;;;;;9.98;5.85;;;;;;;12.98;36.86;100943.28;5051874;28;20033;-76
2022/01/12 10:45:54;;;;;;;6.82;5.20;;;;;;;13.54;35.62;100944.38;5056732;28;20454;-75
2022/01/12 10:48:20;;;;;;;7.93;5.45;;;;;;;13.73;35.02;100937.78;5069386;28;20063;-75
2022/01/12 10:50:56;;;;;;;7.35;5.72;;;;;;;13.92;34.26;100948.28;5072080;28;20439;-75
2022/01/12 10:53:27;;;;;;;8.63;5.35;;;;;;;14.43;33.36;100935.19;5070376;28;20111;-75
2022/01/12 10:56:11;;;;;;;6.30;5.03;;;;;;;13.59;34.18;100937.41;5059926;28;20020;-75
2022/01/12 10:58:40;;;;;;;7.15;4.95;;;;;;;13.98;33.96;100935.84;5057205;28;20120;-73
2022/01/12 11:01:05;;;;;;;7.45;5.63;;;;;;;12.44;35.39;100916.47;5053380;28;20013;-72
2022/01/12 11:03:31;;;;;;;8.25;5.65;;;;;;;13.01;35.34;100932.94;5069679;28;20063;-72
2022/01/12 11:05:57;;;;;;;7.38;5.68;;;;;;;13.84;34.77;100933.84;5065440;28;20037;-72
2022/01/12 11:08:24;;;;;;;6.70;5.07;;;;;;;13.07;35.47;100924.13;5062196;28;20028;-72
2022/01/12 11:10:50;;;;;;;7.25;4.75;;;;;;;13.70;35.24;100914.47;5051750;28;20025;-72
2022/01/12 11:13:16;;;;;;;5.35;4.32;;;;;;;14.01;34.63;100925.44;5053994;28;20035;-72
2022/01/12 11:15:42;;;;;;;7.15;5.47;;;;;;;12.89;35.61;100905.25;5056294;28;20041;-72
2022/01/12 11:18:08;;;;;;;6.97;5.30;;;;;;;13.48;34.60;100901.56;5047765;28;20056;-73
2022/01/12 11:20:34;;;;;;;6.25;5.28;;;;;;;15.38;31.26;100879.63;5048504;28;20021;-72
2022/01/12 11:23:13;;;;;;;7.32;4.95;;;;;;;15.29;31.23;100894.34;5060950;28;20760;-73
2022/01/12 11:25:44;;;;;;;6.47;5.38;;;;;;;15.30;31.50;100887.84;5049221;28;21807;-72
2022/01/12 11:28:16;;;;;;;6.25;4.97;;;;;;;14.05;33.55;100873.41;5062314;28;20035;-73
2022/01/12 11:30:58;;;;;;;6.22;4.75;;;;;;;13.23;33.41;100877.09;5058238;28;20048;-73
2022/01/12 11:33:29;;;;;;;5.75;4.95;;;;;;;13.33;34.28;100872.31;5054935;28;20024;-72
2022/01/12 11:35:58;;;;;;;7.40;5.47;;;;;;;11.90;36.42;100864.31;5062293;28;20029;-72
2022/01/12 11:38:35;;;;;;;6.80;4.93;;;;;;;10.64;38.33;100869.91;5066731;28;20527;-75
2022/01/12 11:41:14;;;;;;;8.50;5.35;;;;;;;11.32;37.85;100873.91;5069099;28;20103;-72
2022/01/12 11:43:47;;;;;;;6.63;4.85;;;;;;;11.46;37.27;100870.63;5069184;28;20193;-71
2022/01/12 11:46:15;;;;;;;6.72;4.90;;;;;;;12.25;35.67;100856.00;5067394;28;20521;-71
2022/01/12 11:48:59;;;;;;;6.20;5.20;;;;;;;12.70;35.11;100841.19;5062469;28;20522;-72
2022/01/12 11:51:39;;;;;;;7.28;5.65;;;;;;;12.79;35.03;100831.19;5054270;28;20064;-72
2022/01/12 11:54:09;;;;;;;7.15;5.35;;;;;;;12.96;35.88;100852.94;5055618;28;20020;-74
2022/01/12 11:56:37;;;;;;;6.95;5.10;;;;;;;13.39;34.66;100851.78;5060137;28;20402;-73
2022/01/12 11:59:11;;;;;;;7.45;4.82;;;;;;;12.81;35.67;100840.03;5059880;28;20028;-72
2022/01/12 12:01:44;;;;;;;7.10;5.50;;;;;;;11.93;36.51;100845.00;5064111;28;20048;-72
2022/01/12 12:04:19;;;;;;;8.32;5.15;;;;;;;11.96;37.63;100853.66;5064338;28;20513;-71
2022/01/12 12:06:45;;;;;;;7.57;5.13;;;;;;;11.38;37.86;100848.88;5073345;28;20052;-73
2022/01/12 12:09:13;;;;;;;6.90;5.22;;;;;;;12.25;35.14;100833.44;5069490;28;20052;-72
2022/01/12 12:11:38;;;;;;;6.15;4.75;;;;;;;12.18;36.39;100849.53;5064703;28;20451;-72
2022/01/12 12:14:08;;;;;;;7.68;5.13;;;;;;;13.15;34.62;100836.28;5067592;28;20078;-72
2022/01/12 12:16:35;;;;;;;7.25;5.35;;;;;;;13.59;34.47;100835.94;5063892;28;20025;-72
2022/01/12 12:19:05;;;;;;;6.68;5.40;;;;;;;13.54;34.87;100843.75;5067380;28;20704;-75
2022/01/12 12:21:32;;;;;;;6.72;5.63;;;;;;;13.80;34.08;100838.94;5078850;28;20025;-70
2022/01/12 12:24:12;;;;;;;7.90;5.88;;;;;;;13.72;34.03;100836.25;5064388;28;20445;-70
2022/01/12 12:26:46;;;;;;;6.88;5.40;;;;;;;12.29;35.53;100832.09;5063837;28;20039;-71
2022/01/12 12:29:14;;;;;;;8.35;6.25;;;;;;;11.06;38.30;100825.94;5065475;28;20021;-71
2022/01/12 12:31:39;;;;;;;6.25;5.10;;;;;;;12.11;36.90;100836.78;5061227;28;20032;-70
2022/01/12 12:34:06;;;;;;;7.72;6.20;;;;;;;13.34;34.68;100827.81;5060327;28;20382;-74
2022/01/12 12:36:32;;;;;;;7.75;5.95;;;;;;;12.52;35.67;100836.91;5063796;28;20640;-71
2022/01/12 12:39:13;;;;;;;6.55;5.43;;;;;;;12.79;35.25;100838.50;5063781;28;20035;-72